Cooper Flying Service Airport


Codes: 00MO/
Name: Cooper Flying Service Airport
City: Alba
Country: United States
Elevation: 970 ft.

Photos at Cooper Flying Service Airport


   Photos courtesy of SpottingLog. You can add your own sightings and photos by signing up for a free trial today.



No photos found.

Weather at Cooper Flying Service Airport


Time (UTC)DescriptionTempratureWindCloud coverageVisibilityPressureHumidity
15-Apr-2024 18:00Clear Sky25°C13 mph, SE0%10000m1011hPa65%
15-Apr-2024 21:00Scattered Clouds25°C16 mph, S33%10000m1010hPa66%
16-Apr-2024 00:00Broken Clouds23°C20 mph, S67%10000m1010hPa72%
16-Apr-2024 03:00Overcast Clouds22°C18 mph, S100%10000m1006hPa68%
16-Apr-2024 06:00Overcast Clouds21°C20 mph, S98%10000m1006hPa73%
16-Apr-2024 09:00Scattered Clouds20°C18 mph, S39%10000m1005hPa82%
16-Apr-2024 12:00Light Rain19°C27 mph, S67%10000m1003hPa89%
16-Apr-2024 15:00Light Rain18°C25 mph, S94%10000m1003hPa91%
16-Apr-2024 18:00Light Rain23°C29 mph, SW80%10000m1002hPa65%
16-Apr-2024 21:00Light Rain23°C27 mph, SW0%10000m1002hPa45%
17-Apr-2024 00:00Clear Sky21°C22 mph, SW0%10000m1002hPa49%
17-Apr-2024 03:00Clear Sky20°C25 mph, S0%10000m1002hPa40%
17-Apr-2024 06:00Clear Sky18°C18 mph, S0%10000m1004hPa51%
17-Apr-2024 09:00Clear Sky15°C13 mph, W0%10000m1007hPa66%
17-Apr-2024 12:00Clear Sky12°C11 mph, SW0%10000m1010hPa80%
17-Apr-2024 15:00Clear Sky17°C16 mph, NW0%10000m1012hPa63%
17-Apr-2024 18:00Clear Sky21°C13 mph, NW0%10000m1012hPa54%
17-Apr-2024 21:00Clear Sky23°C11 mph, NW0%10000m1011hPa48%
18-Apr-2024 00:00Clear Sky21°C4 mph, N0%10000m1012hPa63%
18-Apr-2024 03:00Clear Sky16°C4 mph, E0%10000m1014hPa67%
18-Apr-2024 06:00Clear Sky13°C9 mph, E0%10000m1015hPa82%
18-Apr-2024 09:00Clear Sky12°C11 mph, SE0%10000m1013hPa86%
18-Apr-2024 12:00Clear Sky13°C13 mph, SE0%10000m1013hPa85%
18-Apr-2024 15:00Light Rain20°C9 mph, SE46%10000m1013hPa76%
18-Apr-2024 18:00Light Rain25°C11 mph, SW73%10000m1010hPa74%
18-Apr-2024 21:00Moderate Rain23°C11 mph, NW82%8293m1009hPa80%
19-Apr-2024 00:00Moderate Rain12°C25 mph, N87%10000m1013hPa90%
19-Apr-2024 03:00Light Rain10°C20 mph, NE100%10000m1018hPa91%
19-Apr-2024 06:00Overcast Clouds9°C16 mph, N100%10000m1020hPa91%
19-Apr-2024 09:00Overcast Clouds8°C16 mph, NE97%10000m1020hPa89%
19-Apr-2024 12:00Overcast Clouds7°C13 mph, NE97%10000m1022hPa89%
19-Apr-2024 15:00Broken Clouds11°C18 mph, NE65%10000m1024hPa62%
19-Apr-2024 18:00Broken Clouds15°C18 mph, NE81%10000m1022hPa48%
19-Apr-2024 21:00Overcast Clouds16°C13 mph, NE87%10000m1021hPa45%
20-Apr-2024 00:00Broken Clouds13°C13 mph, NE77%10000m1021hPa59%
20-Apr-2024 03:00Overcast Clouds10°C11 mph, NE100%10000m1023hPa57%
20-Apr-2024 06:00Broken Clouds7°C11 mph, NE71%10000m1025hPa63%
20-Apr-2024 09:00Overcast Clouds9°C11 mph, NE98%10000m1025hPa52%
20-Apr-2024 12:00Overcast Clouds9°C9 mph, NE99%10000m1026hPa54%
20-Apr-2024 15:00Overcast Clouds10°C13 mph, NE98%10000m1026hPa59%